Terminal Aerodrome Forecast
Issued by NWS

Home | Current Version | Previous Version | Text Only | Print | Product List | Glossary On
Versions: 1 2 3 4 5 6 7 8 9 10 11 12 13 14 15 16 17 18
000
FTAK31 PANC 110541
TAFADL
TAF
PADL 110541Z 1106/1206 34020G28KT P6SM -RA OVC050 WS020/03050KT
     FM111200 35010KT P6SM -RA SCT015 BKN025
     FM111600 15008KT 5SM -RA SCT007 OVC015
     FM120000 03014G22KT P6SM SCT020 OVC050=

USA.gov is the U.S. government's official web portal to all federal, state and local government web resources and services.